»·PEaware :: BOE561 KLAS-KPSP

BOE561 :: KLAS-KPSP

FLIGHT INFORMATION

Flight Status: Arrived
Operator:
Boeing Commercial Airplane Group
More flights by this operator :: More flights under this callsign
Pilot: Ben F. (2808)
Aircraft: BOEING 737-200
(B732)
More flights by this aircraft type
Origin: KLAS McCarran Intl
United States
Destination: KPSP Palm Springs Intl
United States
More flights between these airports :: More routes between these airports
Route: MCCRN5 GFS SBONO1
File this flight plan on PilotEdge
Remarks: Hey Boss!!! SUP?
Altitude:
(Current/Filed)
20,000ft
Speed:
(Current/Filed)
387kts
Departed: 19-Apr-18 08:56 AM
Arrived: 19-Apr-18 09:35 AM
Distance/Time
Traveled:
151nm/0:39
Distance/Time
To Go:
Arrived

Flight Plot

Page will automatically refresh every two minutes.

Flight plan parsing failed; only flown route is shown


Map Options




Map Legend


Flown Route
Filed Route
Departure Airport
Arrival Airport
Navaid (VOR, NDB)
Fix

Horizontal Profiles

Position Reports

Time Latitude Longitude Heading Altitude Ground
Speed
19-Apr-18 08:42 36.080730 -115.171085 269 2150ft 0kts
19-Apr-18 08:43 36.080730 -115.171085 269 2150ft 0kts
19-Apr-18 08:44 36.080730 -115.171085 269 2150ft 0kts
19-Apr-18 08:45 36.080730 -115.171085 269 2150ft 0kts
19-Apr-18 08:46 36.080730 -115.171085 269 2150ft 0kts
19-Apr-18 08:47 36.080730 -115.171085 269 2150ft 0kts
19-Apr-18 08:48 36.080731 -115.171163 273 2150ft 3kts
19-Apr-18 08:49 36.081450 -115.170432 89 2150ft 6kts
19-Apr-18 08:50 36.082543 -115.168595 27 2150ft 22kts
19-Apr-18 08:51 36.089011 -115.164872 24 2150ft 25kts
19-Apr-18 08:52 36.095523 -115.161110 24 2150ft 26kts
19-Apr-18 08:53 36.099847 -115.157525 93 2150ft 3kts
19-Apr-18 08:54 36.099375 -115.156642 186 2150ft 12kts
19-Apr-18 08:55 36.096560 -115.158217 205 2150ft 76kts
19-Apr-18 08:56 36.057313 -115.178238 202 3811ft 186kts
19-Apr-18 08:57 36.016791 -115.223392 231 6439ft 220kts
19-Apr-18 08:58 35.975596 -115.290143 231 9051ft 263kts
19-Apr-18 08:59 35.911951 -115.327015 176 11224ft 310kts
19-Apr-18 09:00 35.828277 -115.312210 175 13902ft 319kts
19-Apr-18 09:01 35.739917 -115.294880 175 16298ft 328kts
19-Apr-18 09:02 35.649543 -115.277056 175 18392ft 336kts
19-Apr-18 09:03 35.556378 -115.258762 175 19018ft 349kts
19-Apr-18 09:04 35.462462 -115.240264 176 19977ft 331kts
19-Apr-18 09:05 35.367416 -115.221737 175 20021ft 361kts
19-Apr-18 09:06 35.265128 -115.201747 175 20009ft 383kts
19-Apr-18 09:07 35.160238 -115.181295 176 19996ft 381kts
19-Apr-18 09:08 35.060633 -115.208726 200 20002ft 368kts
19-Apr-18 09:09 34.980216 -115.242952 202 20001ft 366kts
19-Apr-18 09:10 34.888607 -115.283005 205 20007ft 368kts
19-Apr-18 09:11 34.794238 -115.324474 205 20008ft 373kts
19-Apr-18 09:12 34.695413 -115.367935 205 19893ft 380kts
19-Apr-18 09:13 34.596523 -115.411319 205 19961ft 380kts
19-Apr-18 09:14 34.497227 -115.454800 205 20013ft 381kts
19-Apr-18 09:15 34.397915 -115.498472 205 20022ft 382kts
19-Apr-18 09:16 34.310757 -115.551573 224 19590ft 321kts
19-Apr-18 09:17 34.244334 -115.623107 226 17081ft 318kts
19-Apr-18 09:18 34.183167 -115.690925 225 14915ft 313kts
19-Apr-18 09:19 34.125880 -115.754646 225 13032ft 307kts
19-Apr-18 09:20 34.060455 -115.811672 218 11990ft 277kts
19-Apr-18 09:21 33.998496 -115.862527 218 10999ft 259kts
19-Apr-18 09:22 33.937234 -115.912542 218 10990ft 267kts
19-Apr-18 09:23 33.908558 -115.985506 271 10298ft 262kts
19-Apr-18 09:24 33.909472 -116.066922 271 8652ft 248kts
19-Apr-18 09:25 33.908616 -116.148889 271 7017ft 245kts
19-Apr-18 09:26 33.906950 -116.229723 271 6985ft 242kts
19-Apr-18 09:27 33.905460 -116.309061 271 6981ft 231kts
19-Apr-18 09:28 33.904175 -116.385815 271 6251ft 233kts
19-Apr-18 09:29 33.907991 -116.462732 303 4995ft 227kts
19-Apr-18 09:30 33.944780 -116.518000 307 4288ft 209kts
19-Apr-18 09:31 33.921479 -116.570584 183 3165ft 212kts
19-Apr-18 09:32 33.875331 -116.547242 145 1653ft 171kts
19-Apr-18 09:33 33.842829 -116.519384 143 626ft 131kts
19-Apr-18 09:34 33.824025 -116.502701 154 486ft 10kts
19-Apr-18 09:35 33.823351 -116.504960 326 486ft 10kts
19-Apr-18 09:36 33.825347 -116.507268 269 486ft 9kts
19-Apr-18 09:37 33.825379 -116.509312 273 486ft 0kts
19-Apr-18 09:38 33.825379 -116.509312 273 486ft 0kts

Navigation Log

Ident Type
Flight plan parsing failed, navigation log unavailable